sensor_id;sensor_type;location;lat;lon;timestamp;P1;durP1;ratioP1;P2;durP2;ratioP2
10535;SDS011;5316;49.538;8.352;2023-11-21T00:00:26;3.57;;;1.17;;
10535;SDS011;5316;49.538;8.352;2023-11-21T00:02:53;3.70;;;1.03;;
10535;SDS011;5316;49.538;8.352;2023-11-21T00:05:19;4.40;;;1.03;;
10535;SDS011;5316;49.538;8.352;2023-11-21T00:07:48;4.23;;;1.07;;
10535;SDS011;5316;49.538;8.352;2023-11-21T00:10:16;4.17;;;1.13;;
10535;SDS011;5316;49.538;8.352;2023-11-21T00:12:43;6.07;;;1.20;;
10535;SDS011;5316;49.538;8.352;2023-11-21T00:15:11;2.57;;;1.00;;
10535;SDS011;5316;49.538;8.352;2023-11-21T00:17:38;3.93;;;1.77;;
10535;SDS011;5316;49.538;8.352;2023-11-21T00:20:05;5.40;;;1.53;;
10535;SDS011;5316;49.538;8.352;2023-11-21T00:22:33;4.83;;;1.10;;
10535;SDS011;5316;49.538;8.352;2023-11-21T00:25:00;5.83;;;1.70;;
10535;SDS011;5316;49.538;8.352;2023-11-21T00:27:28;4.23;;;1.30;;
10535;SDS011;5316;49.538;8.352;2023-11-21T00:29:55;3.70;;;1.30;;
10535;SDS011;5316;49.538;8.352;2023-11-21T00:32:23;6.30;;;1.63;;
10535;SDS011;5316;49.538;8.352;2023-11-21T00:34:50;3.07;;;1.20;;
10535;SDS011;5316;49.538;8.352;2023-11-21T00:37:16;3.00;;;1.30;;
10535;SDS011;5316;49.538;8.352;2023-11-21T00:39:43;3.33;;;1.13;;
10535;SDS011;5316;49.538;8.352;2023-11-21T00:42:10;4.57;;;1.37;;
10535;SDS011;5316;49.538;8.352;2023-11-21T00:44:37;3.77;;;1.30;;
10535;SDS011;5316;49.538;8.352;2023-11-21T00:47:04;2.50;;;1.10;;
10535;SDS011;5316;49.538;8.352;2023-11-21T00:49:32;5.17;;;1.50;;
10535;SDS011;5316;49.538;8.352;2023-11-21T00:51:58;6.40;;;1.53;;
10535;SDS011;5316;49.538;8.352;2023-11-21T00:54:26;2.77;;;1.23;;
10535;SDS011;5316;49.538;8.352;2023-11-21T00:56:53;2.70;;;1.30;;
10535;SDS011;5316;49.538;8.352;2023-11-21T00:59:20;3.43;;;1.27;;
10535;SDS011;5316;49.538;8.352;2023-11-21T01:01:48;4.90;;;1.53;;
10535;SDS011;5316;49.538;8.352;2023-11-21T01:04:14;2.00;;;1.23;;
10535;SDS011;5316;49.538;8.352;2023-11-21T01:06:42;4.10;;;1.47;;
10535;SDS011;5316;49.538;8.352;2023-11-21T01:09:10;2.77;;;1.03;;
10535;SDS011;5316;49.538;8.352;2023-11-21T01:11:37;3.33;;;1.13;;
10535;SDS011;5316;49.538;8.352;2023-11-21T01:14:04;4.37;;;1.33;;
10535;SDS011;5316;49.538;8.352;2023-11-21T01:16:31;3.90;;;1.40;;
10535;SDS011;5316;49.538;8.352;2023-11-21T01:18:58;3.30;;;1.20;;
10535;SDS011;5316;49.538;8.352;2023-11-21T01:21:26;6.43;;;1.30;;
10535;SDS011;5316;49.538;8.352;2023-11-21T01:23:54;3.90;;;1.00;;
10535;SDS011;5316;49.538;8.352;2023-11-21T01:26:21;6.20;;;1.77;;
10535;SDS011;5316;49.538;8.352;2023-11-21T01:28:47;4.87;;;1.40;;
10535;SDS011;5316;49.538;8.352;2023-11-21T01:31:14;3.57;;;1.10;;
10535;SDS011;5316;49.538;8.352;2023-11-21T01:33:41;5.13;;;1.20;;
10535;SDS011;5316;49.538;8.352;2023-11-21T01:36:08;3.57;;;1.23;;
10535;SDS011;5316;49.538;8.352;2023-11-21T01:38:35;3.50;;;1.50;;
10535;SDS011;5316;49.538;8.352;2023-11-21T01:41:04;2.70;;;1.10;;
10535;SDS011;5316;49.538;8.352;2023-11-21T01:43:31;3.00;;;1.10;;
10535;SDS011;5316;49.538;8.352;2023-11-21T01:45:57;4.53;;;1.30;;
10535;SDS011;5316;49.538;8.352;2023-11-21T01:48:25;4.20;;;1.60;;
10535;SDS011;5316;49.538;8.352;2023-11-21T01:50:53;5.07;;;1.30;;
10535;SDS011;5316;49.538;8.352;2023-11-21T01:53:20;2.87;;;1.20;;
10535;SDS011;5316;49.538;8.352;2023-11-21T01:55:47;5.27;;;1.30;;
10535;SDS011;5316;49.538;8.352;2023-11-21T01:58:15;3.33;;;1.43;;
10535;SDS011;5316;49.538;8.352;2023-11-21T02:00:42;3.10;;;1.10;;
10535;SDS011;5316;49.538;8.352;2023-11-21T02:03:09;2.90;;;1.30;;
10535;SDS011;5316;49.538;8.352;2023-11-21T02:05:37;3.67;;;1.40;;
10535;SDS011;5316;49.538;8.352;2023-11-21T02:08:04;4.10;;;1.33;;
10535;SDS011;5316;49.538;8.352;2023-11-21T02:10:32;4.33;;;1.20;;
10535;SDS011;5316;49.538;8.352;2023-11-21T02:12:58;3.23;;;1.50;;
10535;SDS011;5316;49.538;8.352;2023-11-21T02:15:29;5.17;;;1.30;;
10535;SDS011;5316;49.538;8.352;2023-11-21T02:17:55;3.93;;;1.20;;
10535;SDS011;5316;49.538;8.352;2023-11-21T02:20:23;4.30;;;1.17;;
10535;SDS011;5316;49.538;8.352;2023-11-21T02:22:53;3.13;;;1.20;;
10535;SDS011;5316;49.538;8.352;2023-11-21T02:25:23;3.03;;;1.20;;
10535;SDS011;5316;49.538;8.352;2023-11-21T02:27:49;5.87;;;1.60;;
10535;SDS011;5316;49.538;8.352;2023-11-21T02:30:16;4.23;;;1.30;;
10535;SDS011;5316;49.538;8.352;2023-11-21T02:32:43;3.00;;;1.47;;
10535;SDS011;5316;49.538;8.352;2023-11-21T02:35:11;2.67;;;1.30;;
10535;SDS011;5316;49.538;8.352;2023-11-21T02:37:38;4.33;;;1.13;;
10535;SDS011;5316;49.538;8.352;2023-11-21T02:40:08;3.87;;;1.30;;
10535;SDS011;5316;49.538;8.352;2023-11-21T02:42:36;3.23;;;1.43;;
10535;SDS011;5316;49.538;8.352;2023-11-21T02:45:04;4.53;;;1.40;;
10535;SDS011;5316;49.538;8.352;2023-11-21T02:47:31;4.20;;;1.40;;
10535;SDS011;5316;49.538;8.352;2023-11-21T02:49:58;6.53;;;1.60;;
10535;SDS011;5316;49.538;8.352;2023-11-21T02:52:25;4.37;;;1.50;;
10535;SDS011;5316;49.538;8.352;2023-11-21T02:54:52;3.43;;;1.30;;
10535;SDS011;5316;49.538;8.352;2023-11-21T02:57:20;2.17;;;1.70;;
10535;SDS011;5316;49.538;8.352;2023-11-21T02:59:47;4.10;;;1.20;;
10535;SDS011;5316;49.538;8.352;2023-11-21T03:02:13;3.10;;;1.20;;
10535;SDS011;5316;49.538;8.352;2023-11-21T03:04:40;3.43;;;1.40;;
10535;SDS011;5316;49.538;8.352;2023-11-21T03:07:07;5.40;;;1.50;;
10535;SDS011;5316;49.538;8.352;2023-11-21T03:09:34;3.87;;;1.20;;
10535;SDS011;5316;49.538;8.352;2023-11-21T03:12:01;4.13;;;1.20;;
10535;SDS011;5316;49.538;8.352;2023-11-21T03:14:29;4.13;;;1.40;;
10535;SDS011;5316;49.538;8.352;2023-11-21T03:16:56;4.87;;;1.37;;
10535;SDS011;5316;49.538;8.352;2023-11-21T03:19:23;3.60;;;1.50;;
10535;SDS011;5316;49.538;8.352;2023-11-21T03:21:50;2.20;;;1.33;;
10535;SDS011;5316;49.538;8.352;2023-11-21T03:24:18;4.10;;;1.33;;
10535;SDS011;5316;49.538;8.352;2023-11-21T03:26:44;1.73;;;1.10;;
10535;SDS011;5316;49.538;8.352;2023-11-21T03:29:11;5.20;;;1.37;;
10535;SDS011;5316;49.538;8.352;2023-11-21T03:31:39;4.23;;;1.40;;
10535;SDS011;5316;49.538;8.352;2023-11-21T03:34:06;2.37;;;1.20;;
10535;SDS011;5316;49.538;8.352;2023-11-21T03:36:36;1.43;;;1.10;;
10535;SDS011;5316;49.538;8.352;2023-11-21T03:39:03;3.23;;;1.40;;
10535;SDS011;5316;49.538;8.352;2023-11-21T03:41:30;1.83;;;1.60;;
10535;SDS011;5316;49.538;8.352;2023-11-21T03:43:56;1.60;;;1.17;;
10535;SDS011;5316;49.538;8.352;2023-11-21T03:46:23;3.93;;;1.30;;
10535;SDS011;5316;49.538;8.352;2023-11-21T03:48:52;5.63;;;1.80;;
10535;SDS011;5316;49.538;8.352;2023-11-21T03:51:17;3.57;;;1.43;;
10535;SDS011;5316;49.538;8.352;2023-11-21T03:53:44;2.43;;;1.30;;
10535;SDS011;5316;49.538;8.352;2023-11-21T03:56:11;3.77;;;1.57;;
10535;SDS011;5316;49.538;8.352;2023-11-21T03:58:38;3.60;;;1.30;;
10535;SDS011;5316;49.538;8.352;2023-11-21T04:01:05;2.40;;;1.43;;
10535;SDS011;5316;49.538;8.352;2023-11-21T04:03:32;4.70;;;1.57;;
10535;SDS011;5316;49.538;8.352;2023-11-21T04:06:00;3.13;;;2.10;;
10535;SDS011;5316;49.538;8.352;2023-11-21T04:08:27;3.57;;;2.00;;
10535;SDS011;5316;49.538;8.352;2023-11-21T04:10:53;4.37;;;1.60;;
10535;SDS011;5316;49.538;8.352;2023-11-21T04:13:20;3.77;;;1.90;;
10535;SDS011;5316;49.538;8.352;2023-11-21T04:15:47;3.10;;;1.60;;
10535;SDS011;5316;49.538;8.352;2023-11-21T04:18:13;2.87;;;1.67;;
10535;SDS011;5316;49.538;8.352;2023-11-21T04:20:40;3.67;;;1.60;;
10535;SDS011;5316;49.538;8.352;2023-11-21T04:23:08;2.40;;;1.50;;
10535;SDS011;5316;49.538;8.352;2023-11-21T04:25:38;2.73;;;1.57;;
10535;SDS011;5316;49.538;8.352;2023-11-21T04:28:05;4.57;;;1.93;;
10535;SDS011;5316;49.538;8.352;2023-11-21T04:30:32;3.87;;;2.00;;
10535;SDS011;5316;49.538;8.352;2023-11-21T04:32:58;2.87;;;1.80;;
10535;SDS011;5316;49.538;8.352;2023-11-21T04:35:25;7.40;;;3.10;;
10535;SDS011;5316;49.538;8.352;2023-11-21T04:37:51;2.57;;;1.87;;
10535;SDS011;5316;49.538;8.352;2023-11-21T04:40:19;3.40;;;2.20;;
10535;SDS011;5316;49.538;8.352;2023-11-21T04:42:46;9.50;;;6.33;;
10535;SDS011;5316;49.538;8.352;2023-11-21T04:45:13;3.97;;;2.10;;
10535;SDS011;5316;49.538;8.352;2023-11-21T04:47:40;5.97;;;2.30;;
10535;SDS011;5316;49.538;8.352;2023-11-21T04:50:08;5.63;;;2.00;;
10535;SDS011;5316;49.538;8.352;2023-11-21T04:52:35;4.37;;;2.10;;
10535;SDS011;5316;49.538;8.352;2023-11-21T04:55:02;3.80;;;1.70;;
10535;SDS011;5316;49.538;8.352;2023-11-21T04:57:33;4.47;;;1.90;;
10535;SDS011;5316;49.538;8.352;2023-11-21T04:59:59;3.40;;;2.10;;
10535;SDS011;5316;49.538;8.352;2023-11-21T05:02:26;3.03;;;2.17;;
10535;SDS011;5316;49.538;8.352;2023-11-21T05:04:53;2.67;;;2.07;;
10535;SDS011;5316;49.538;8.352;2023-11-21T05:07:21;4.10;;;2.00;;
10535;SDS011;5316;49.538;8.352;2023-11-21T05:09:48;2.83;;;2.10;;
10535;SDS011;5316;49.538;8.352;2023-11-21T05:12:15;3.47;;;2.10;;
10535;SDS011;5316;49.538;8.352;2023-11-21T05:14:43;3.03;;;1.90;;
10535;SDS011;5316;49.538;8.352;2023-11-21T05:17:09;6.10;;;2.20;;
10535;SDS011;5316;49.538;8.352;2023-11-21T05:19:36;3.93;;;2.03;;
10535;SDS011;5316;49.538;8.352;2023-11-21T05:22:04;4.23;;;2.17;;
10535;SDS011;5316;49.538;8.352;2023-11-21T05:24:31;3.77;;;1.93;;
10535;SDS011;5316;49.538;8.352;2023-11-21T05:26:57;2.67;;;2.03;;
10535;SDS011;5316;49.538;8.352;2023-11-21T05:29:24;2.97;;;2.00;;
10535;SDS011;5316;49.538;8.352;2023-11-21T05:31:52;2.87;;;2.33;;
10535;SDS011;5316;49.538;8.352;2023-11-21T05:34:19;11.20;;;7.13;;
10535;SDS011;5316;49.538;8.352;2023-11-21T05:36:48;4.27;;;2.83;;
10535;SDS011;5316;49.538;8.352;2023-11-21T05:39:15;3.63;;;2.83;;
10535;SDS011;5316;49.538;8.352;2023-11-21T05:41:43;3.83;;;3.00;;
10535;SDS011;5316;49.538;8.352;2023-11-21T05:44:10;5.13;;;3.83;;
10535;SDS011;5316;49.538;8.352;2023-11-21T05:46:39;5.90;;;3.77;;
10535;SDS011;5316;49.538;8.352;2023-11-21T05:49:08;4.47;;;4.03;;
10535;SDS011;5316;49.538;8.352;2023-11-21T05:51:35;4.90;;;4.20;;
10535;SDS011;5316;49.538;8.352;2023-11-21T05:54:02;6.40;;;4.60;;
10535;SDS011;5316;49.538;8.352;2023-11-21T05:56:29;4.70;;;4.20;;
10535;SDS011;5316;49.538;8.352;2023-11-21T05:58:56;4.97;;;4.47;;
10535;SDS011;5316;49.538;8.352;2023-11-21T06:01:23;6.47;;;5.80;;
10535;SDS011;5316;49.538;8.352;2023-11-21T06:03:50;6.13;;;5.53;;
10535;SDS011;5316;49.538;8.352;2023-11-21T06:06:18;6.97;;;6.07;;
10535;SDS011;5316;49.538;8.352;2023-11-21T06:08:47;7.80;;;7.07;;
10535;SDS011;5316;49.538;8.352;2023-11-21T06:11:14;6.73;;;6.13;;
10535;SDS011;5316;49.538;8.352;2023-11-21T06:13:41;6.97;;;6.37;;
10535;SDS011;5316;49.538;8.352;2023-11-21T06:16:08;9.03;;;7.63;;
10535;SDS011;5316;49.538;8.352;2023-11-21T06:18:35;7.90;;;6.60;;
10535;SDS011;5316;49.538;8.352;2023-11-21T06:21:01;7.93;;;7.10;;
10535;SDS011;5316;49.538;8.352;2023-11-21T06:23:30;8.47;;;7.07;;
10535;SDS011;5316;49.538;8.352;2023-11-21T06:25:57;7.63;;;6.73;;
10535;SDS011;5316;49.538;8.352;2023-11-21T06:28:24;7.67;;;6.77;;
10535;SDS011;5316;49.538;8.352;2023-11-21T06:30:50;8.37;;;7.57;;
10535;SDS011;5316;49.538;8.352;2023-11-21T06:33:18;9.47;;;8.47;;
10535;SDS011;5316;49.538;8.352;2023-11-21T06:35:46;9.80;;;8.90;;
10535;SDS011;5316;49.538;8.352;2023-11-21T06:38:13;9.63;;;8.50;;
10535;SDS011;5316;49.538;8.352;2023-11-21T06:40:41;11.27;;;8.17;;
10535;SDS011;5316;49.538;8.352;2023-11-21T06:43:09;10.87;;;8.67;;
10535;SDS011;5316;49.538;8.352;2023-11-21T06:45:36;11.80;;;9.33;;
10535;SDS011;5316;49.538;8.352;2023-11-21T06:48:03;10.10;;;8.97;;
10535;SDS011;5316;49.538;8.352;2023-11-21T06:50:30;10.23;;;8.67;;
10535;SDS011;5316;49.538;8.352;2023-11-21T06:52:57;10.47;;;9.37;;
10535;SDS011;5316;49.538;8.352;2023-11-21T06:55:23;11.23;;;10.00;;
10535;SDS011;5316;49.538;8.352;2023-11-21T06:57:51;11.20;;;9.07;;
10535;SDS011;5316;49.538;8.352;2023-11-21T07:00:18;11.93;;;9.10;;
10535;SDS011;5316;49.538;8.352;2023-11-21T07:02:44;12.13;;;9.27;;
10535;SDS011;5316;49.538;8.352;2023-11-21T07:05:11;12.23;;;9.57;;
10535;SDS011;5316;49.538;8.352;2023-11-21T07:07:39;12.67;;;10.83;;
10535;SDS011;5316;49.538;8.352;2023-11-21T07:10:06;13.30;;;11.80;;
10535;SDS011;5316;49.538;8.352;2023-11-21T07:12:34;14.87;;;10.77;;
10535;SDS011;5316;49.538;8.352;2023-11-21T07:15:02;11.03;;;9.83;;
10535;SDS011;5316;49.538;8.352;2023-11-21T07:17:30;12.17;;;10.87;;
10535;SDS011;5316;49.538;8.352;2023-11-21T07:19:57;12.27;;;10.00;;
10535;SDS011;5316;49.538;8.352;2023-11-21T07:22:24;11.60;;;10.03;;
10535;SDS011;5316;49.538;8.352;2023-11-21T07:24:50;12.13;;;10.13;;
10535;SDS011;5316;49.538;8.352;2023-11-21T07:27:17;14.30;;;11.47;;
10535;SDS011;5316;49.538;8.352;2023-11-21T07:29:44;11.90;;;10.57;;
10535;SDS011;5316;49.538;8.352;2023-11-21T07:32:12;11.40;;;10.17;;
10535;SDS011;5316;49.538;8.352;2023-11-21T07:34:39;10.33;;;9.27;;
10535;SDS011;5316;49.538;8.352;2023-11-21T07:37:06;14.47;;;11.30;;
10535;SDS011;5316;49.538;8.352;2023-11-21T07:39:33;13.57;;;11.07;;
10535;SDS011;5316;49.538;8.352;2023-11-21T07:42:00;13.50;;;11.23;;
10535;SDS011;5316;49.538;8.352;2023-11-21T07:44:27;13.77;;;12.17;;
10535;SDS011;5316;49.538;8.352;2023-11-21T07:46:54;11.73;;;10.53;;
10535;SDS011;5316;49.538;8.352;2023-11-21T07:49:23;11.57;;;10.37;;
10535;SDS011;5316;49.538;8.352;2023-11-21T07:51:51;53.50;;;15.20;;
10535;SDS011;5316;49.538;8.352;2023-11-21T07:54:18;13.07;;;9.90;;
10535;SDS011;5316;49.538;8.352;2023-11-21T07:56:46;13.03;;;10.27;;
10535;SDS011;5316;49.538;8.352;2023-11-21T07:59:13;10.27;;;9.23;;
10535;SDS011;5316;49.538;8.352;2023-11-21T08:01:39;12.93;;;10.97;;
10535;SDS011;5316;49.538;8.352;2023-11-21T08:04:08;13.50;;;11.60;;
10535;SDS011;5316;49.538;8.352;2023-11-21T08:06:36;12.43;;;10.90;;
10535;SDS011;5316;49.538;8.352;2023-11-21T08:09:03;13.97;;;10.83;;
10535;SDS011;5316;49.538;8.352;2023-11-21T08:11:29;14.43;;;12.13;;
10535;SDS011;5316;49.538;8.352;2023-11-21T08:13:58;13.23;;;11.83;;
10535;SDS011;5316;49.538;8.352;2023-11-21T08:16:25;15.67;;;11.23;;
10535;SDS011;5316;49.538;8.352;2023-11-21T08:18:52;13.43;;;10.60;;
10535;SDS011;5316;49.538;8.352;2023-11-21T08:21:19;11.40;;;9.87;;
10535;SDS011;5316;49.538;8.352;2023-11-21T08:23:47;14.37;;;11.33;;
10535;SDS011;5316;49.538;8.352;2023-11-21T08:26:18;15.17;;;12.10;;
10535;SDS011;5316;49.538;8.352;2023-11-21T08:28:45;13.63;;;10.90;;
10535;SDS011;5316;49.538;8.352;2023-11-21T08:31:12;13.57;;;11.20;;
10535;SDS011;5316;49.538;8.352;2023-11-21T08:33:39;15.10;;;11.83;;
10535;SDS011;5316;49.538;8.352;2023-11-21T08:36:06;15.97;;;11.60;;
10535;SDS011;5316;49.538;8.352;2023-11-21T08:38:33;16.50;;;12.60;;
10535;SDS011;5316;49.538;8.352;2023-11-21T08:41:04;12.40;;;10.93;;
10535;SDS011;5316;49.538;8.352;2023-11-21T08:43:32;15.80;;;10.90;;
10535;SDS011;5316;49.538;8.352;2023-11-21T08:45:59;11.83;;;10.13;;
10535;SDS011;5316;49.538;8.352;2023-11-21T08:48:26;13.17;;;11.63;;
10535;SDS011;5316;49.538;8.352;2023-11-21T08:50:54;13.20;;;11.03;;
10535;SDS011;5316;49.538;8.352;2023-11-21T08:53:21;12.93;;;11.17;;
10535;SDS011;5316;49.538;8.352;2023-11-21T08:55:48;13.57;;;11.10;;
10535;SDS011;5316;49.538;8.352;2023-11-21T08:58:16;14.00;;;11.33;;
10535;SDS011;5316;49.538;8.352;2023-11-21T09:00:43;14.40;;;11.10;;
10535;SDS011;5316;49.538;8.352;2023-11-21T09:03:11;16.17;;;11.47;;
10535;SDS011;5316;49.538;8.352;2023-11-21T09:05:38;15.97;;;12.70;;
10535;SDS011;5316;49.538;8.352;2023-11-21T09:08:05;16.20;;;10.20;;
10535;SDS011;5316;49.538;8.352;2023-11-21T09:10:32;13.10;;;10.23;;
10535;SDS011;5316;49.538;8.352;2023-11-21T09:13:01;12.40;;;9.37;;
10535;SDS011;5316;49.538;8.352;2023-11-21T09:15:29;11.07;;;9.40;;
10535;SDS011;5316;49.538;8.352;2023-11-21T09:17:56;12.30;;;9.17;;
10535;SDS011;5316;49.538;8.352;2023-11-21T09:20:23;11.63;;;9.10;;
10535;SDS011;5316;49.538;8.352;2023-11-21T09:22:50;12.70;;;9.90;;
10535;SDS011;5316;49.538;8.352;2023-11-21T09:25:16;12.13;;;9.73;;
10535;SDS011;5316;49.538;8.352;2023-11-21T09:27:44;12.27;;;10.97;;
10535;SDS011;5316;49.538;8.352;2023-11-21T09:30:12;15.13;;;11.83;;
10535;SDS011;5316;49.538;8.352;2023-11-21T09:32:40;18.23;;;12.17;;
10535;SDS011;5316;49.538;8.352;2023-11-21T09:35:10;15.50;;;12.00;;
10535;SDS011;5316;49.538;8.352;2023-11-21T09:37:38;13.17;;;9.77;;
10535;SDS011;5316;49.538;8.352;2023-11-21T09:40:06;12.57;;;9.90;;
10535;SDS011;5316;49.538;8.352;2023-11-21T09:42:39;11.83;;;10.03;;
10535;SDS011;5316;49.538;8.352;2023-11-21T09:45:12;11.93;;;9.93;;
10535;SDS011;5316;49.538;8.352;2023-11-21T09:47:44;12.13;;;9.73;;
10535;SDS011;5316;49.538;8.352;2023-11-21T09:50:13;10.40;;;9.03;;
10535;SDS011;5316;49.538;8.352;2023-11-21T09:52:44;12.23;;;10.40;;
10535;SDS011;5316;49.538;8.352;2023-11-21T09:55:22;10.77;;;9.67;;
10535;SDS011;5316;49.538;8.352;2023-11-21T09:57:54;15.43;;;10.83;;
10535;SDS011;5316;49.538;8.352;2023-11-21T10:00:22;11.47;;;10.30;;
10535;SDS011;5316;49.538;8.352;2023-11-21T10:02:50;11.40;;;9.03;;
10535;SDS011;5316;49.538;8.352;2023-11-21T10:05:19;9.00;;;7.90;;
10535;SDS011;5316;49.538;8.352;2023-11-21T10:07:47;8.50;;;7.70;;
10535;SDS011;5316;49.538;8.352;2023-11-21T10:10:16;9.27;;;6.70;;
10535;SDS011;5316;49.538;8.352;2023-11-21T10:12:47;7.47;;;5.63;;
10535;SDS011;5316;49.538;8.352;2023-11-21T10:15:18;9.70;;;6.70;;
10535;SDS011;5316;49.538;8.352;2023-11-21T10:17:48;21.30;;;15.27;;
10535;SDS011;5316;49.538;8.352;2023-11-21T10:20:18;7.23;;;6.53;;
10535;SDS011;5316;49.538;8.352;2023-11-21T10:22:45;6.43;;;5.47;;
10535;SDS011;5316;49.538;8.352;2023-11-21T10:25:12;10.73;;;8.57;;
10535;SDS011;5316;49.538;8.352;2023-11-21T10:27:40;5.47;;;4.80;;
10535;SDS011;5316;49.538;8.352;2023-11-21T10:30:08;5.13;;;4.63;;
10535;SDS011;5316;49.538;8.352;2023-11-21T10:32:37;6.23;;;4.93;;
10535;SDS011;5316;49.538;8.352;2023-11-21T10:35:07;7.57;;;5.63;;
10535;SDS011;5316;49.538;8.352;2023-11-21T10:37:35;5.70;;;5.20;;
10535;SDS011;5316;49.538;8.352;2023-11-21T10:40:04;21.90;;;13.20;;
10535;SDS011;5316;49.538;8.352;2023-11-21T10:42:32;7.17;;;6.17;;
10535;SDS011;5316;49.538;8.352;2023-11-21T10:44:58;6.87;;;6.23;;
10535;SDS011;5316;49.538;8.352;2023-11-21T10:47:26;7.97;;;5.77;;
10535;SDS011;5316;49.538;8.352;2023-11-21T10:49:53;7.33;;;5.57;;
10535;SDS011;5316;49.538;8.352;2023-11-21T10:52:21;8.20;;;5.20;;
10535;SDS011;5316;49.538;8.352;2023-11-21T10:54:52;6.33;;;5.67;;
10535;SDS011;5316;49.538;8.352;2023-11-21T10:57:19;6.07;;;5.00;;
10535;SDS011;5316;49.538;8.352;2023-11-21T10:59:48;6.47;;;5.57;;
10535;SDS011;5316;49.538;8.352;2023-11-21T11:02:19;7.77;;;5.70;;
10535;SDS011;5316;49.538;8.352;2023-11-21T11:04:50;7.10;;;6.27;;
10535;SDS011;5316;49.538;8.352;2023-11-21T11:07:22;7.23;;;6.57;;
10535;SDS011;5316;49.538;8.352;2023-11-21T11:09:52;7.73;;;5.60;;
10535;SDS011;5316;49.538;8.352;2023-11-21T11:12:20;6.10;;;5.43;;
10535;SDS011;5316;49.538;8.352;2023-11-21T11:14:47;7.07;;;5.77;;
10535;SDS011;5316;49.538;8.352;2023-11-21T11:17:15;7.10;;;6.30;;
10535;SDS011;5316;49.538;8.352;2023-11-21T11:47:42;3.80;;;3.20;;
10535;SDS011;5316;49.538;8.352;2023-11-21T11:51:02;5.00;;;3.50;;
10535;SDS011;5316;49.538;8.352;2023-11-21T11:54:27;3.67;;;3.37;;
10535;SDS011;5316;49.538;8.352;2023-11-21T14:07:41;4.87;;;2.90;;
10535;SDS011;5316;49.538;8.352;2023-11-21T14:19:11;3.87;;;2.20;;
10535;SDS011;5316;49.538;8.352;2023-11-21T14:21:42;4.33;;;2.60;;
10535;SDS011;5316;49.538;8.352;2023-11-21T14:24:11;8.07;;;2.87;;
10535;SDS011;5316;49.538;8.352;2023-11-21T14:26:39;4.80;;;2.60;;
10535;SDS011;5316;49.538;8.352;2023-11-21T14:29:07;6.33;;;3.10;;
10535;SDS011;5316;49.538;8.352;2023-11-21T14:31:37;4.03;;;2.70;;
10535;SDS011;5316;49.538;8.352;2023-11-21T14:34:04;5.87;;;3.40;;
10535;SDS011;5316;49.538;8.352;2023-11-21T14:36:32;4.00;;;3.50;;
10535;SDS011;5316;49.538;8.352;2023-11-21T14:38:59;4.80;;;3.47;;
10535;SDS011;5316;49.538;8.352;2023-11-21T14:41:27;6.00;;;3.00;;
10535;SDS011;5316;49.538;8.352;2023-11-21T14:43:54;4.73;;;2.60;;
10535;SDS011;5316;49.538;8.352;2023-11-21T14:46:23;3.93;;;2.80;;
10535;SDS011;5316;49.538;8.352;2023-11-21T14:48:50;4.10;;;2.40;;
10535;SDS011;5316;49.538;8.352;2023-11-21T14:51:24;4.37;;;2.50;;
10535;SDS011;5316;49.538;8.352;2023-11-21T14:53:52;4.63;;;2.30;;
10535;SDS011;5316;49.538;8.352;2023-11-21T14:56:19;5.07;;;2.20;;
10535;SDS011;5316;49.538;8.352;2023-11-21T14:58:53;4.17;;;2.70;;
10535;SDS011;5316;49.538;8.352;2023-11-21T15:01:22;3.83;;;3.20;;
10535;SDS011;5316;49.538;8.352;2023-11-21T15:04:01;7.13;;;5.53;;
10535;SDS011;5316;49.538;8.352;2023-11-21T15:06:31;7.80;;;5.43;;
10535;SDS011;5316;49.538;8.352;2023-11-21T15:08:57;4.60;;;4.13;;
10535;SDS011;5316;49.538;8.352;2023-11-21T15:11:41;5.17;;;3.13;;
10535;SDS011;5316;49.538;8.352;2023-11-21T15:14:09;4.33;;;2.87;;
10535;SDS011;5316;49.538;8.352;2023-11-21T15:16:40;3.97;;;2.80;;
10535;SDS011;5316;49.538;8.352;2023-11-21T15:19:10;5.83;;;3.00;;
10535;SDS011;5316;49.538;8.352;2023-11-21T15:21:43;5.63;;;2.80;;
10535;SDS011;5316;49.538;8.352;2023-11-21T15:24:10;4.57;;;2.97;;
10535;SDS011;5316;49.538;8.352;2023-11-21T15:26:37;5.50;;;3.40;;
10535;SDS011;5316;49.538;8.352;2023-11-21T15:29:04;6.97;;;3.87;;
10535;SDS011;5316;49.538;8.352;2023-11-21T15:31:32;5.63;;;3.60;;
10535;SDS011;5316;49.538;8.352;2023-11-21T15:34:01;7.07;;;3.70;;
10535;SDS011;5316;49.538;8.352;2023-11-21T15:36:30;6.17;;;4.27;;
10535;SDS011;5316;49.538;8.352;2023-11-21T15:38:57;5.50;;;4.47;;
10535;SDS011;5316;49.538;8.352;2023-11-21T15:41:24;7.30;;;4.70;;
10535;SDS011;5316;49.538;8.352;2023-11-21T15:43:51;6.77;;;4.20;;
10535;SDS011;5316;49.538;8.352;2023-11-21T15:46:18;9.63;;;5.03;;
10535;SDS011;5316;49.538;8.352;2023-11-21T15:48:46;7.53;;;4.37;;
10535;SDS011;5316;49.538;8.352;2023-11-21T15:51:19;6.43;;;4.90;;
10535;SDS011;5316;49.538;8.352;2023-11-21T15:53:46;6.00;;;4.20;;
10535;SDS011;5316;49.538;8.352;2023-11-21T15:56:13;7.40;;;5.93;;
10535;SDS011;5316;49.538;8.352;2023-11-21T15:58:40;6.83;;;5.87;;
10535;SDS011;5316;49.538;8.352;2023-11-21T16:01:07;6.30;;;4.83;;
10535;SDS011;5316;49.538;8.352;2023-11-21T16:03:35;7.53;;;4.97;;
10535;SDS011;5316;49.538;8.352;2023-11-21T16:06:03;5.90;;;4.87;;
10535;SDS011;5316;49.538;8.352;2023-11-21T16:08:35;5.93;;;4.87;;
10535;SDS011;5316;49.538;8.352;2023-11-21T16:11:04;8.27;;;4.90;;
10535;SDS011;5316;49.538;8.352;2023-11-21T16:13:31;8.43;;;5.43;;
10535;SDS011;5316;49.538;8.352;2023-11-21T16:15:59;10.23;;;6.37;;
10535;SDS011;5316;49.538;8.352;2023-11-21T16:18:26;8.13;;;5.83;;
10535;SDS011;5316;49.538;8.352;2023-11-21T16:20:54;10.47;;;5.50;;
10535;SDS011;5316;49.538;8.352;2023-11-21T16:23:23;9.90;;;4.97;;
10535;SDS011;5316;49.538;8.352;2023-11-21T16:25:49;5.90;;;5.13;;
10535;SDS011;5316;49.538;8.352;2023-11-21T16:30:48;13.60;;;8.80;;
10535;SDS011;5316;49.538;8.352;2023-11-21T16:33:16;6.77;;;5.23;;
10535;SDS011;5316;49.538;8.352;2023-11-21T16:35:44;6.53;;;4.87;;
10535;SDS011;5316;49.538;8.352;2023-11-21T16:38:12;7.07;;;4.90;;
10535;SDS011;5316;49.538;8.352;2023-11-21T16:40:41;8.07;;;5.63;;
10535;SDS011;5316;49.538;8.352;2023-11-21T16:43:10;9.87;;;5.40;;
10535;SDS011;5316;49.538;8.352;2023-11-21T16:45:37;6.90;;;5.43;;
10535;SDS011;5316;49.538;8.352;2023-11-21T16:48:04;7.67;;;5.47;;
10535;SDS011;5316;49.538;8.352;2023-11-21T16:50:32;7.80;;;5.07;;
10535;SDS011;5316;49.538;8.352;2023-11-21T16:52:59;8.37;;;5.03;;
10535;SDS011;5316;49.538;8.352;2023-11-21T16:55:26;9.43;;;5.10;;
10535;SDS011;5316;49.538;8.352;2023-11-21T16:57:54;10.73;;;5.10;;
10535;SDS011;5316;49.538;8.352;2023-11-21T17:00:21;6.70;;;5.23;;
10535;SDS011;5316;49.538;8.352;2023-11-21T17:02:47;7.53;;;5.40;;
10535;SDS011;5316;49.538;8.352;2023-11-21T17:05:15;8.10;;;5.47;;
10535;SDS011;5316;49.538;8.352;2023-11-21T17:07:44;7.97;;;5.63;;
10535;SDS011;5316;49.538;8.352;2023-11-21T17:10:11;7.53;;;5.80;;
10535;SDS011;5316;49.538;8.352;2023-11-21T17:12:38;8.47;;;5.60;;
10535;SDS011;5316;49.538;8.352;2023-11-21T17:15:07;7.33;;;5.10;;
10535;SDS011;5316;49.538;8.352;2023-11-21T17:17:35;9.93;;;5.50;;
10535;SDS011;5316;49.538;8.352;2023-11-21T17:20:02;8.23;;;5.57;;
10535;SDS011;5316;49.538;8.352;2023-11-21T17:22:35;8.27;;;5.40;;
10535;SDS011;5316;49.538;8.352;2023-11-21T17:25:02;8.03;;;5.07;;
10535;SDS011;5316;49.538;8.352;2023-11-21T17:27:29;6.13;;;4.70;;
10535;SDS011;5316;49.538;8.352;2023-11-21T17:29:56;9.73;;;5.53;;
10535;SDS011;5316;49.538;8.352;2023-11-21T17:32:24;8.57;;;4.73;;
10535;SDS011;5316;49.538;8.352;2023-11-21T17:34:52;6.80;;;4.87;;
10535;SDS011;5316;49.538;8.352;2023-11-21T17:37:19;7.83;;;5.30;;
10535;SDS011;5316;49.538;8.352;2023-11-21T17:39:45;8.20;;;5.20;;
10535;SDS011;5316;49.538;8.352;2023-11-21T17:42:13;9.30;;;5.80;;
10535;SDS011;5316;49.538;8.352;2023-11-21T17:44:41;10.27;;;6.30;;
10535;SDS011;5316;49.538;8.352;2023-11-21T17:47:08;11.00;;;6.40;;
10535;SDS011;5316;49.538;8.352;2023-11-21T17:49:37;9.73;;;7.47;;